Lagunita, New Mexico
Current Conditions -  °F | °C
As of 10:53 PM on Saturday 25 Oct 2014 (Local Time) from KCQC Reporting Station
Clear Clear  
Wind Chill: 51°   Ceiling: Unl
Heat Index: 51°   Visibility: 10mi
Dew Point: 31°   Wind: 10mph
Humidity: 46%   Direction: 270°W
Pressure: 30.26"   Gusts: NA
Location:  35.2352°N, 105.52°W
Report Text: KCQC 260453Z AUTO 27009KT 10SM CLR 11/M01 A3026 RMK AO2 SLP167 T01061006
Loading
Personal Weather Stations






























Interactive Weather Map
Tropical Storm Tracking
New forecast layout! Learn more

10-Day Weather Forecast

Advertisements
Track Severe Weather on mobile